Ana Sayfa
METAR-TAF:

METAR-TAF

Havaalanları :

Savannakhet, Laos

Enlem: 16-33-24N, Boylam: 104-45-34E, yükseklik: 155 m

Güncel hava durumu gözlemi

Rapor saat 02:00 UTC de 1 saat ve 11 dakika önce yapıldı.
Rüzgar kuzeydan 4 kt
Sıcaklık 24°C
Nem 65%
Basınç 1017 hPa
Görüş mesafesi: 6000 m
10000 ft yükseklikte parçalı bulutlu

METAR: VLSK 160200Z 36004KT 6000 SCT100 24/17 Q1017 NOSIG

Saat: 10:11 (03:11 UTC)

Tahmin

Rapor saat 23:00 UTC de 4 saat ve 11 dakika önce yapıldı.
Ayın 16'si saat 00 UTC'den ayın 16'si saat 24 UTC'ye kadar geçerli Tahmin
Rüzgar kuzeybatıdan 4 kt
Görüş mesafesi: 8000 m
2000 ft yükseklikte parçalı bulutlu
9000 ft yükseklikte az bulutlu

TAF: VLSK 152300Z 1600/1624 32004KT 8000 SCT020 FEW090

4.000'den fazla havaalanı için hava durumu gözlemleri ve tahminleri (METAR ve TAF raporları).

Kullanılabilir istasyonlar harita üzerinde sarı ve kırmızı noktalarla gösterilir.

İstasyonun adını görmek için fareyi noktanın üzerinde gezdirin.

Sonrasında hava gözlem ve tahminlerini görmek için tıklayın.

Haritayı değiştirmek için: yaklaştırmak için siyah artı işaretli yeşil düğmeye ve uzaklaştırmak için de eksi işaretli düğmeye hızla tıklayın; bitişik haritalar için yeşil okları kullanın.


METAR-TAF: